createdAt,value
2019-01-28T00:02:06.155Z,47.27
2019-01-28T00:04:34.597Z,49.60
2019-01-28T00:07:03.036Z,38.15
2019-01-28T00:09:31.500Z,37.85
2019-01-28T00:11:59.938Z,30.70
2019-01-28T00:14:28.375Z,54.90
2019-01-28T00:16:57.504Z,34.70
2019-01-28T00:19:26.459Z,37.55
2019-01-28T00:21:55.174Z,41.88
2019-01-28T00:24:23.889Z,36.63
2019-01-28T00:26:52.331Z,36.42
2019-01-28T00:29:21.017Z,29.92
2019-01-28T00:31:49.453Z,32.30
2019-01-28T00:34:18.156Z,32.78
2019-01-28T00:36:46.582Z,33.10
2019-01-28T00:39:15.021Z,27.40
2019-01-28T00:41:43.446Z,29.80
2019-01-28T00:44:12.210Z,27.52
2019-01-28T00:46:41.205Z,30.75
2019-01-28T00:49:09.997Z,38.30
2019-01-28T00:51:38.425Z,30.80
2019-01-28T00:54:08.984Z,29.60
2019-01-28T00:56:37.407Z,26.52
2019-01-28T00:59:06.171Z,23.20
2019-01-28T01:01:34.855Z,22.73
2019-01-28T01:04:03.647Z,27.73
2019-01-28T01:06:32.066Z,23.52
2019-01-28T01:09:00.824Z,20.60
2019-01-28T01:11:31.380Z,21.85
2019-01-28T01:14:00.126Z,22.00
2019-01-28T01:16:28.556Z,22.15
2019-01-28T01:18:57.290Z,24.52
2019-01-28T01:21:25.953Z,22.15
2019-01-28T01:23:54.386Z,24.30
2019-01-28T01:26:23.161Z,23.80
2019-01-28T01:28:51.588Z,22.77
2019-01-28T01:31:20.023Z,20.62
2019-01-28T01:33:48.445Z,21.05
2019-01-28T01:36:17.175Z,28.40
2019-01-28T01:38:45.598Z,28.85
2019-01-28T01:41:14.037Z,28.45
2019-01-28T01:43:42.469Z,26.02
2019-01-28T01:46:11.504Z,26.85
2019-01-28T01:48:40.495Z,24.77
2019-01-28T01:51:08.934Z,26.60
2019-01-28T01:53:37.376Z,26.77
2019-01-28T01:56:05.800Z,28.05
2019-01-28T01:58:34.222Z,22.65
2019-01-28T02:01:02.663Z,24.95
2019-01-28T02:03:31.483Z,22.30
2019-01-28T02:06:00.275Z,19.92
2019-01-28T02:08:29.022Z,25.37
2019-01-28T02:10:57.469Z,22.00
2019-01-28T02:13:26.288Z,25.80
2019-01-28T02:15:55.017Z,22.48
2019-01-28T02:18:24.130Z,17.67
2019-01-28T02:20:52.552Z,22.30
2019-01-28T02:23:21.057Z,24.77
2019-01-28T02:25:49.507Z,22.60
2019-01-28T02:28:18.245Z,21.75
2019-01-28T02:30:46.669Z,26.50
2019-01-28T02:33:15.416Z,22.45
2019-01-28T02:35:43.856Z,17.52
2019-01-28T02:38:12.288Z,21.73
2019-01-28T02:40:40.982Z,18.87
2019-01-28T02:43:09.407Z,17.65
2019-01-28T02:45:37.838Z,21.05
2019-01-28T02:48:06.286Z,19.32
2019-01-28T02:50:34.722Z,19.23
2019-01-28T02:53:03.458Z,20.30
2019-01-28T02:55:32.243Z,23.32
2019-01-28T02:58:00.676Z,23.35
2019-01-28T03:00:29.088Z,21.15
2019-01-28T03:02:57.527Z,23.73
2019-01-28T03:05:25.972Z,22.93
2019-01-28T03:07:54.403Z,26.23
2019-01-28T03:10:23.310Z,25.20
2019-01-28T03:12:51.777Z,24.77
2019-01-28T03:15:20.475Z,23.50
2019-01-28T03:17:48.912Z,23.77
2019-01-28T03:20:18.172Z,23.10
2019-01-28T03:22:46.970Z,25.85
2019-01-28T03:25:15.752Z,27.67
2019-01-28T03:27:44.200Z,24.05
2019-01-28T03:30:14.680Z,25.85
2019-01-28T03:32:43.445Z,22.20
2019-01-28T03:35:11.857Z,27.17
2019-01-28T03:37:40.304Z,23.22
2019-01-28T03:40:11.658Z,24.72
2019-01-28T03:42:40.100Z,26.42
2019-01-28T03:45:11.540Z,24.57
2019-01-28T03:47:40.272Z,21.87
2019-01-28T03:50:09.679Z,25.57
2019-01-28T03:52:38.114Z,23.15
2019-01-28T03:55:07.306Z,20.60
2019-01-28T03:57:35.744Z,24.82
2019-01-28T04:00:05.169Z,22.62
2019-01-28T04:02:33.604Z,22.07
2019-01-28T04:05:02.030Z,18.80
2019-01-28T04:07:30.481Z,20.70
2019-01-28T04:09:59.268Z,24.37
2019-01-28T04:12:27.707Z,19.73
2019-01-28T04:14:56.186Z,18.27
2019-01-28T04:17:24.626Z,18.77
2019-01-28T04:19:53.070Z,17.48
2019-01-28T04:22:21.507Z,16.55
2019-01-28T04:24:49.948Z,18.40
2019-01-28T04:27:18.390Z,16.37
2019-01-28T04:29:46.824Z,16.27
2019-01-28T04:32:15.516Z,14.65
2019-01-28T04:34:44.238Z,19.02
2019-01-28T04:37:14.862Z,12.55
2019-01-28T04:39:43.299Z,13.32
2019-01-28T04:42:12.073Z,11.75
2019-01-28T04:44:40.769Z,11.45
2019-01-28T04:47:10.281Z,9.58
2019-01-28T04:49:38.714Z,10.85
2019-01-28T04:52:07.129Z,10.18
2019-01-28T04:54:35.569Z,11.43
2019-01-28T04:57:03.998Z,9.90
2019-01-28T04:59:32.777Z,10.82
2019-01-28T05:02:01.460Z,10.48
2019-01-28T05:04:29.900Z,11.53
2019-01-28T05:06:58.329Z,8.75
2019-01-28T05:09:27.099Z,8.38
2019-01-28T05:11:57.604Z,7.30
2019-01-28T05:14:26.317Z,7.47
2019-01-28T05:16:55.309Z,10.08
2019-01-28T05:19:23.748Z,8.45
2019-01-28T05:21:52.427Z,12.93
2019-01-28T05:24:20.892Z,9.15
2019-01-28T05:26:49.312Z,12.78
2019-01-28T05:29:17.749Z,38.15
2019-01-28T05:31:46.497Z,7.55
2019-01-28T05:34:15.281Z,7.65
2019-01-28T05:36:43.707Z,12.03
2019-01-28T05:39:12.205Z,26.52
2019-01-28T05:41:40.630Z,15.18
2019-01-28T05:44:09.061Z,31.62
2019-01-28T05:46:37.486Z,46.18
2019-01-28T05:49:06.215Z,15.85
2019-01-28T05:51:34.640Z,7.78
2019-01-28T05:54:03.085Z,13.15
2019-01-28T05:56:32.085Z,13.50
2019-01-28T05:59:00.797Z,12.25
2019-01-28T06:01:29.223Z,25.45
2019-01-28T06:03:57.942Z,8.33
2019-01-28T06:06:26.663Z,11.05
2019-01-28T06:08:55.111Z,26.02
2019-01-28T06:11:23.834Z,30.27
2019-01-28T06:13:52.924Z,18.17
2019-01-28T06:16:21.606Z,8.25
2019-01-28T06:18:50.094Z,32.03
2019-01-28T06:21:18.527Z,12.58
2019-01-28T06:23:46.998Z,19.85
2019-01-28T06:26:15.434Z,9.95
2019-01-28T06:28:44.222Z,22.93
2019-01-28T06:31:12.657Z,10.72
2019-01-28T06:33:41.085Z,50.50
2019-01-28T06:36:09.801Z,13.65
2019-01-28T06:38:38.556Z,14.75
2019-01-28T06:41:06.997Z,15.32
2019-01-28T06:43:36.288Z,10.72
2019-01-28T06:46:05.021Z,15.30
2019-01-28T06:48:33.705Z,37.70
2019-01-28T06:51:02.136Z,10.60
2019-01-28T06:53:30.569Z,18.75
2019-01-28T06:55:59.003Z,43.13
2019-01-28T06:58:27.415Z,15.98
2019-01-28T07:00:55.854Z,63.08
2019-01-28T07:03:24.583Z,15.50
2019-01-28T07:05:53.070Z,22.55
2019-01-28T07:08:21.494Z,12.37
2019-01-28T07:10:50.284Z,13.45
2019-01-28T07:13:18.845Z,14.73
2019-01-28T07:15:47.335Z,14.20
2019-01-28T07:18:16.253Z,11.53
2019-01-28T07:20:44.705Z,14.63
2019-01-28T07:23:13.142Z,26.37
2019-01-28T07:25:41.850Z,14.85
2019-01-28T07:28:10.520Z,14.65
2019-01-28T07:30:39.316Z,11.90
2019-01-28T07:33:07.739Z,13.20
2019-01-28T07:35:37.295Z,13.10
2019-01-28T07:38:05.984Z,12.63
2019-01-28T07:40:34.434Z,12.45
2019-01-28T07:43:02.848Z,12.47
2019-01-28T07:45:33.469Z,18.42
2019-01-28T07:48:03.179Z,16.42
2019-01-28T07:50:31.752Z,14.73
2019-01-28T07:53:00.447Z,54.50
2019-01-28T07:55:28.879Z,26.12
2019-01-28T07:57:57.320Z,14.20
2019-01-28T08:00:26.742Z,12.93
2019-01-28T08:02:55.491Z,16.45
2019-01-28T08:05:24.185Z,16.65
2019-01-28T08:07:52.623Z,14.38
2019-01-28T08:10:21.091Z,13.00
2019-01-28T08:12:49.567Z,14.93
2019-01-28T08:15:19.263Z,19.27
2019-01-28T08:17:48.429Z,31.48
2019-01-28T08:20:18.074Z,49.93
2019-01-28T08:22:46.530Z,93.75
2019-01-28T08:25:16.187Z,121.35
2019-01-28T08:27:44.921Z,206.82
2019-01-28T08:30:19.339Z,162.68
2019-01-28T08:32:48.147Z,163.95
2019-01-28T08:35:16.843Z,147.10
2019-01-28T08:37:45.277Z,86.87
2019-01-28T08:40:14.301Z,43.42
2019-01-28T08:42:42.732Z,43.35
2019-01-28T08:45:11.402Z,49.03
2019-01-28T08:47:39.845Z,33.92
2019-01-28T08:50:10.376Z,23.38
2019-01-28T08:52:38.805Z,13.80
2019-01-28T08:55:14.317Z,17.37
2019-01-28T08:57:39.792Z,16.97
2019-01-28T09:00:11.872Z,14.85
2019-01-28T09:05:08.918Z,36.85
2019-01-28T09:07:37.747Z,20.00
2019-01-28T09:10:06.951Z,25.77
2019-01-28T09:12:35.697Z,24.18
2019-01-28T09:15:04.723Z,18.65
2019-01-28T09:17:33.163Z,10.50
2019-01-28T09:20:01.575Z,8.18
2019-01-28T09:22:30.639Z,7.05
2019-01-28T09:24:59.065Z,8.98
2019-01-28T09:27:27.502Z,8.73
2019-01-28T09:29:56.201Z,17.73
2019-01-28T09:32:24.633Z,9.73
2019-01-28T09:34:53.656Z,7.00
2019-01-28T09:37:22.100Z,11.48
2019-01-28T09:39:50.523Z,17.15
2019-01-28T09:42:18.946Z,19.40
2019-01-28T09:44:47.688Z,7.33
2019-01-28T09:47:16.429Z,7.35
2019-01-28T09:49:44.869Z,5.92
2019-01-28T09:52:13.533Z,4.85
2019-01-28T09:54:43.634Z,4.90
2019-01-28T09:57:12.440Z,5.17
2019-01-28T09:59:40.862Z,7.22
2019-01-28T10:02:09.609Z,6.20
2019-01-28T10:04:38.041Z,5.05
2019-01-28T10:07:06.728Z,7.90
2019-01-28T10:09:35.554Z,13.65
2019-01-28T10:12:04.031Z,8.83
2019-01-28T10:14:32.473Z,9.45
2019-01-28T10:17:01.413Z,4.85
2019-01-28T10:19:30.518Z,5.15
2019-01-28T10:21:58.951Z,7.25
2019-01-28T10:24:27.382Z,7.20
2019-01-28T10:26:55.801Z,32.55
2019-01-28T10:29:24.248Z,10.32
2019-01-28T10:31:52.970Z,5.17
2019-01-28T10:34:21.401Z,5.87
2019-01-28T10:36:50.205Z,5.72
2019-01-28T10:39:18.969Z,22.87
2019-01-28T10:41:47.401Z,11.55
2019-01-28T10:44:15.837Z,10.48
2019-01-28T10:46:44.522Z,10.63
2019-01-28T10:49:13.313Z,16.95
2019-01-28T10:51:41.724Z,4.50
2019-01-28T10:54:10.406Z,34.15
2019-01-28T10:56:38.830Z,6.40
2019-01-28T10:59:07.431Z,5.25
2019-01-28T11:01:35.864Z,27.10
2019-01-28T11:04:04.600Z,11.22
2019-01-28T11:06:33.099Z,78.40
2019-01-28T11:09:02.196Z,137.28
2019-01-28T11:11:30.615Z,8.43
2019-01-28T11:13:59.146Z,42.13
2019-01-28T11:16:27.558Z,7.45
2019-01-28T11:18:57.863Z,17.25
2019-01-28T11:21:26.215Z,13.65
2019-01-28T11:23:54.696Z,44.95
2019-01-28T11:26:23.205Z,14.70
2019-01-28T11:28:51.606Z,11.30
2019-01-28T11:31:20.174Z,14.85
2019-01-28T11:33:48.854Z,15.48
2019-01-28T11:36:17.357Z,32.17
2019-01-28T11:38:45.918Z,11.50
2019-01-28T11:41:14.743Z,39.03
2019-01-28T11:43:43.161Z,77.12
2019-01-28T11:46:11.563Z,54.55
2019-01-28T11:48:40.456Z,21.77
2019-01-28T11:51:09.118Z,26.25
2019-01-28T11:53:37.557Z,20.57
2019-01-28T11:56:05.991Z,24.70
2019-01-28T11:58:34.414Z,26.90
2019-01-28T12:01:11.527Z,19.17
2019-01-28T12:03:40.322Z,15.08
2019-01-28T12:06:08.767Z,17.12
2019-01-28T12:13:57.304Z,9.40
2019-01-28T12:16:25.758Z,26.25
2019-01-28T12:18:54.179Z,20.80
2019-01-28T12:21:22.618Z,11.45
2019-01-28T12:23:51.278Z,22.70
2019-01-28T12:26:19.710Z,9.80
2019-01-28T12:28:48.371Z,10.05
2019-01-28T12:31:17.251Z,14.73
2019-01-28T12:33:46.760Z,16.52
2019-01-28T12:36:15.252Z,14.33
2019-01-28T12:38:43.936Z,12.20
2019-01-28T12:41:17.325Z,11.83
2019-01-28T12:43:42.916Z,10.32
2019-01-28T12:46:11.352Z,7.55
2019-01-28T12:48:39.812Z,10.60
2019-01-28T12:51:08.492Z,11.65
2019-01-28T12:53:37.654Z,10.48
2019-01-28T12:56:06.481Z,11.75
2019-01-28T12:58:34.914Z,11.18
2019-01-28T13:01:05.186Z,10.50
2019-01-28T13:03:33.610Z,10.80
2019-01-28T13:06:02.350Z,11.10
2019-01-28T13:08:31.149Z,13.78
2019-01-28T13:10:59.601Z,14.23
2019-01-28T13:13:28.295Z,19.77
2019-01-28T13:15:56.992Z,22.02
2019-01-28T13:18:25.977Z,19.45
2019-01-28T13:20:54.405Z,25.70
2019-01-28T13:23:23.147Z,102.50
2019-01-28T13:25:51.571Z,67.10
2019-01-28T13:28:20.007Z,27.40
2019-01-28T13:30:48.431Z,29.35
2019-01-28T13:33:17.445Z,22.00
2019-01-28T13:35:46.169Z,12.88
2019-01-28T13:38:14.750Z,14.05
2019-01-28T13:40:43.437Z,13.48
2019-01-28T13:43:11.933Z,13.75
2019-01-28T13:45:40.374Z,15.60
2019-01-28T13:48:12.586Z,14.95
2019-01-28T13:50:41.352Z,13.00
2019-01-28T13:53:10.101Z,12.13
2019-01-28T13:55:38.537Z,10.85
2019-01-28T13:58:06.968Z,8.78
2019-01-28T14:00:35.380Z,9.03
2019-01-28T14:03:03.860Z,12.55
2019-01-28T14:05:32.559Z,17.60
2019-01-28T14:08:01.009Z,12.63
2019-01-28T14:10:29.469Z,16.52
2019-01-28T14:12:57.912Z,17.70
2019-01-28T14:15:29.073Z,23.52
2019-01-28T14:17:57.814Z,34.33
2019-01-28T14:20:29.557Z,39.48
2019-01-28T14:22:58.322Z,38.28
2019-01-28T14:25:26.762Z,41.05
2019-01-28T14:27:55.395Z,60.98
2019-01-28T14:30:41.743Z,137.52
2019-01-28T14:33:10.221Z,292.45
2019-01-28T14:35:39.499Z,171.00
2019-01-28T14:38:09.138Z,201.27
2019-01-28T14:40:38.588Z,201.25
2019-01-28T14:43:07.029Z,289.60
2019-01-28T14:45:35.603Z,258.30
2019-01-28T14:48:04.179Z,183.07
2019-01-28T14:50:32.969Z,101.65
2019-01-28T14:53:02.039Z,141.80
2019-01-28T14:55:30.484Z,94.10
2019-01-28T14:57:59.015Z,77.80
2019-01-28T15:00:32.875Z,81.63
2019-01-28T15:03:01.306Z,76.80
2019-01-28T15:05:29.828Z,79.50
2019-01-28T15:07:58.344Z,71.72
2019-01-28T15:10:26.911Z,73.90
2019-01-28T15:12:55.586Z,79.35
2019-01-28T15:15:29.558Z,75.55
2019-01-28T15:18:01.417Z,74.37
2019-01-28T15:20:29.860Z,70.97
2019-01-28T15:22:59.581Z,60.35
2019-01-28T15:25:28.470Z,48.00
2019-01-28T15:27:56.924Z,52.38
2019-01-28T15:30:27.004Z,56.95
2019-01-28T15:32:55.494Z,65.52
2019-01-28T15:35:23.950Z,51.63
2019-01-28T15:37:52.368Z,49.98
2019-01-28T15:40:23.079Z,47.35
2019-01-28T15:42:51.518Z,52.33
2019-01-28T15:45:22.351Z,47.00
2019-01-28T15:47:51.098Z,51.80
2019-01-28T15:50:19.623Z,50.63
2019-01-28T15:52:48.049Z,44.38
2019-01-28T15:55:22.408Z,38.95
2019-01-28T15:57:51.215Z,43.33
2019-01-28T16:00:22.457Z,51.70
2019-01-28T16:02:50.981Z,34.77
2019-01-28T16:05:20.145Z,29.90
2019-01-28T16:07:48.563Z,20.23
2019-01-28T16:10:17.381Z,18.37
2019-01-28T16:12:45.871Z,11.80
2019-01-28T16:15:23.225Z,7.30
2019-01-28T16:17:51.692Z,9.60
2019-01-28T16:20:20.540Z,11.33
2019-01-28T16:22:49.119Z,6.87
2019-01-28T16:25:17.501Z,7.47
2019-01-28T16:27:45.939Z,7.03
2019-01-28T16:30:17.060Z,7.40
2019-01-28T16:32:45.485Z,7.05
2019-01-28T16:35:14.834Z,6.80
2019-01-28T16:37:43.257Z,4.78
2019-01-28T16:40:13.889Z,6.75
2019-01-28T16:42:42.343Z,28.95
2019-01-28T16:45:12.145Z,6.53
2019-01-28T16:47:40.575Z,7.08
2019-01-28T16:50:10.445Z,11.60
2019-01-28T16:52:39.128Z,6.30
2019-01-28T16:55:08.918Z,5.83
2019-01-28T16:57:38.001Z,5.62
2019-01-28T17:00:09.571Z,6.35
2019-01-28T17:02:37.995Z,4.87
2019-01-28T17:05:07.452Z,5.72
2019-01-28T17:07:36.364Z,5.80
2019-01-28T17:10:06.719Z,5.42
2019-01-28T17:12:35.259Z,12.10
2019-01-28T17:15:04.424Z,9.60
2019-01-28T17:17:33.628Z,12.18
2019-01-28T17:20:02.045Z,13.50
2019-01-28T17:22:30.503Z,13.45
2019-01-28T17:24:58.923Z,13.62
2019-01-28T17:27:27.649Z,12.65
2019-01-28T17:29:56.079Z,11.18
2019-01-28T17:32:24.514Z,10.43
2019-01-28T17:34:52.944Z,9.95
2019-01-28T17:37:21.671Z,9.15
2019-01-28T17:39:50.092Z,9.10
2019-01-28T17:42:18.524Z,12.73
2019-01-28T17:44:46.957Z,11.95
2019-01-28T17:47:16.006Z,13.68
2019-01-28T17:49:44.441Z,13.72
2019-01-28T17:52:12.872Z,9.45
2019-01-28T17:54:41.959Z,8.60
2019-01-28T17:57:10.399Z,8.95
2019-01-28T17:59:38.825Z,9.08
2019-01-28T18:02:07.255Z,12.03
2019-01-28T18:04:36.011Z,12.15
2019-01-28T18:07:04.460Z,14.20
2019-01-28T18:09:32.892Z,13.60
2019-01-28T18:12:01.381Z,20.70
2019-01-28T18:14:29.887Z,13.45
2019-01-28T18:16:58.593Z,16.20
2019-01-28T18:19:27.998Z,14.93
2019-01-28T18:21:56.801Z,13.53
2019-01-28T18:24:25.234Z,17.12
2019-01-28T18:26:53.790Z,10.40
2019-01-28T18:29:22.742Z,13.25
2019-01-28T18:31:51.424Z,10.63
2019-01-28T18:34:19.855Z,9.95
2019-01-28T18:36:48.596Z,9.30
2019-01-28T18:39:17.355Z,11.70
2019-01-28T18:41:46.014Z,10.65
2019-01-28T18:44:14.479Z,11.40
2019-01-28T18:46:42.925Z,11.33
2019-01-28T18:49:11.410Z,12.80
2019-01-28T18:51:41.138Z,15.68
2019-01-28T18:54:09.576Z,14.33
2019-01-28T18:56:38.345Z,15.25
2019-01-28T18:59:07.088Z,15.05
2019-01-28T19:01:35.528Z,17.48
2019-01-28T19:04:04.241Z,14.47
2019-01-28T19:06:48.175Z,10.58
2019-01-28T19:09:21.678Z,11.80
2019-01-28T19:12:07.873Z,12.30
2019-01-28T19:14:57.759Z,15.35
2019-01-28T19:17:38.244Z,17.37
2019-01-28T19:20:22.506Z,15.40
2019-01-28T19:22:51.263Z,16.40
2019-01-28T19:25:19.700Z,12.53
2019-01-28T19:27:48.138Z,16.55
2019-01-28T19:30:18.790Z,16.05
2019-01-28T19:32:47.509Z,14.13
2019-01-28T19:35:15.969Z,15.03
2019-01-28T19:37:47.074Z,20.55
2019-01-28T19:40:15.889Z,20.72
2019-01-28T19:42:44.316Z,15.10
2019-01-28T19:45:15.612Z,16.73
2019-01-28T19:47:44.367Z,15.18
2019-01-28T19:50:16.196Z,13.38
2019-01-28T19:52:44.708Z,10.65
2019-01-28T19:55:13.459Z,13.10
2019-01-28T19:57:42.197Z,9.33
2019-01-28T20:00:19.763Z,10.45
2019-01-28T20:02:48.222Z,10.93
2019-01-28T20:05:16.699Z,9.50
2019-01-28T20:07:45.428Z,11.60
2019-01-28T20:10:14.019Z,13.20
2019-01-28T20:12:42.446Z,16.12
2019-01-28T20:15:12.679Z,14.60
2019-01-28T20:17:41.259Z,28.52
2019-01-28T20:20:11.615Z,16.85
2019-01-28T20:22:40.100Z,19.37
2019-01-28T20:25:10.106Z,20.23
2019-01-28T20:27:38.970Z,21.42
2019-01-28T20:30:11.657Z,22.52
2019-01-28T20:32:40.149Z,26.37
2019-01-28T20:35:09.536Z,29.80
2019-01-28T20:37:38.083Z,31.45
2019-01-28T20:40:08.672Z,25.77
2019-01-28T20:42:39.647Z,22.60
2019-01-28T20:45:09.783Z,26.97
2019-01-28T20:47:38.301Z,32.10
2019-01-28T20:50:10.245Z,29.85
2019-01-28T20:52:38.694Z,25.52
2019-01-28T20:55:07.562Z,28.87
2019-01-28T20:57:36.059Z,29.25
2019-01-28T21:00:07.188Z,29.05
2019-01-28T21:02:37.771Z,25.17
2019-01-28T21:05:08.167Z,28.85
2019-01-28T21:07:36.660Z,24.47
2019-01-28T21:10:07.251Z,30.88
2019-01-28T21:12:35.705Z,22.32
2019-01-28T21:15:04.707Z,24.80
2019-01-28T21:17:33.310Z,25.62
2019-01-28T21:20:02.009Z,28.55
2019-01-28T21:22:30.751Z,24.07
2019-01-28T21:24:59.507Z,26.55
2019-01-28T21:27:27.940Z,29.02
2019-01-28T21:29:56.721Z,25.17
2019-01-28T21:32:26.125Z,20.05
2019-01-28T21:34:54.920Z,20.00
2019-01-28T21:37:30.142Z,25.95
2019-01-28T21:39:58.983Z,24.95
2019-01-28T21:42:27.444Z,27.10
2019-01-28T21:44:56.306Z,19.05
2019-01-28T21:47:24.838Z,26.02
2019-01-28T21:49:55.224Z,28.38
2019-01-28T21:52:24.018Z,20.40
2019-01-28T21:54:52.812Z,25.62
2019-01-28T21:57:21.581Z,26.97
2019-01-28T21:59:50.051Z,26.02
2019-01-28T22:02:18.497Z,22.27
2019-01-28T22:04:46.956Z,23.75
2019-01-28T22:07:15.468Z,19.65
2019-01-28T22:09:43.980Z,24.32
2019-01-28T22:12:15.362Z,24.30
2019-01-28T22:14:44.753Z,27.98
2019-01-28T22:17:13.240Z,27.55
2019-01-28T22:19:41.813Z,25.27
2019-01-28T22:22:12.597Z,28.17
2019-01-28T22:24:41.842Z,25.02
2019-01-28T22:27:10.333Z,35.58
2019-01-28T22:29:39.516Z,24.47
2019-01-28T22:32:08.104Z,29.00
2019-01-28T22:34:36.835Z,25.88
2019-01-28T22:37:05.439Z,26.80
2019-01-28T22:39:34.035Z,27.80
2019-01-28T22:42:02.610Z,28.38
2019-01-28T22:44:31.149Z,25.95
2019-01-28T22:46:59.749Z,28.42
2019-01-28T22:49:28.291Z,38.78
2019-01-28T22:51:56.859Z,29.72
2019-01-28T22:54:25.714Z,36.73
2019-01-28T22:56:54.768Z,25.05
2019-01-28T22:59:23.292Z,31.10
2019-01-28T23:01:51.752Z,34.10
2019-01-28T23:04:20.214Z,36.40
2019-01-28T23:06:48.666Z,35.58
2019-01-28T23:09:17.456Z,42.62
2019-01-28T23:11:45.943Z,41.00
2019-01-28T23:14:14.718Z,47.53
2019-01-28T23:16:43.427Z,40.28
2019-01-28T23:19:12.196Z,56.60
2019-01-28T23:21:40.660Z,45.75
2019-01-28T23:24:09.120Z,43.52
2019-01-28T23:26:37.866Z,45.67
2019-01-28T23:29:06.319Z,43.98
2019-01-28T23:31:35.158Z,47.23
2019-01-28T23:34:03.899Z,50.83
2019-01-28T23:36:32.447Z,44.48
2019-01-28T23:39:01.174Z,52.33
2019-01-28T23:41:30.212Z,55.73
2019-01-28T23:43:58.946Z,51.02
2019-01-28T23:46:27.739Z,52.70
2019-01-28T23:48:56.488Z,59.10
2019-01-28T23:51:24.927Z,58.52
2019-01-28T23:53:53.356Z,49.42
2019-01-28T23:56:21.797Z,50.33
2019-01-28T23:58:50.556Z,52.95
